sensor_id;sensor_type;location;lat;lon;timestamp;pressure;altitude;pressure_sealevel;temperature;humidity
77079;BME280;66004;55.096;38.760;2023-08-12T00:01:03;100325.16;;;23.82;63.37
77079;BME280;66004;55.096;38.760;2023-08-12T00:03:28;100329.25;;;23.81;63.71
77079;BME280;66004;55.096;38.760;2023-08-12T00:05:54;100315.34;;;23.76;63.72
77079;BME280;66004;55.096;38.760;2023-08-12T00:08:20;100326.84;;;23.76;63.53
77079;BME280;66004;55.096;38.760;2023-08-12T00:10:45;100316.56;;;23.75;63.43
77079;BME280;66004;55.096;38.760;2023-08-12T00:13:11;100320.31;;;23.71;63.37
77079;BME280;66004;55.096;38.760;2023-08-12T00:15:38;100325.22;;;23.71;62.83
77079;BME280;66004;55.096;38.760;2023-08-12T00:18:06;100313.72;;;23.71;62.82
77079;BME280;66004;55.096;38.760;2023-08-12T00:20:32;100317.03;;;23.69;63.11
77079;BME280;66004;55.096;38.760;2023-08-12T00:22:57;100327.28;;;23.70;62.55
77079;BME280;66004;55.096;38.760;2023-08-12T00:25:23;100333.88;;;23.67;62.97
77079;BME280;66004;55.096;38.760;2023-08-12T00:27:48;100354.84;;;23.64;62.89
77079;BME280;66004;55.096;38.760;2023-08-12T00:30:14;100390.53;;;23.63;63.09
77079;BME280;66004;55.096;38.760;2023-08-12T00:32:39;100358.16;;;23.59;62.84
77079;BME280;66004;55.096;38.760;2023-08-12T00:35:06;100395.09;;;23.57;62.97
77079;BME280;66004;55.096;38.760;2023-08-12T00:37:31;100388.53;;;23.57;63.47
77079;BME280;66004;55.096;38.760;2023-08-12T00:39:57;100340.19;;;23.48;63.58
77079;BME280;66004;55.096;38.760;2023-08-12T00:42:22;100337.69;;;23.54;62.92
77079;BME280;66004;55.096;38.760;2023-08-12T00:44:48;100359.84;;;23.53;62.87
77079;BME280;66004;55.096;38.760;2023-08-12T00:47:14;100387.69;;;23.56;62.92
77079;BME280;66004;55.096;38.760;2023-08-12T00:49:40;100377.06;;;23.53;63.42
77079;BME280;66004;55.096;38.760;2023-08-12T00:52:08;100370.47;;;23.56;63.07
77079;BME280;66004;55.096;38.760;2023-08-12T00:54:34;100333.59;;;23.51;63.16
77079;BME280;66004;55.096;38.760;2023-08-12T00:57:00;100340.91;;;23.59;62.39
77079;BME280;66004;55.096;38.760;2023-08-12T00:59:26;100346.69;;;23.56;62.07
77079;BME280;66004;55.096;38.760;2023-08-12T01:01:51;100361.81;;;23.63;61.92
77079;BME280;66004;55.096;38.760;2023-08-12T01:04:16;100370.41;;;23.63;61.95
77079;BME280;66004;55.096;38.760;2023-08-12T01:06:42;100381.91;;;23.63;62.05
77079;BME280;66004;55.096;38.760;2023-08-12T01:09:07;100380.28;;;23.62;62.30
77079;BME280;66004;55.096;38.760;2023-08-12T01:11:53;100365.13;;;23.58;62.33
77079;BME280;66004;55.096;38.760;2023-08-12T01:14:28;100359.75;;;23.64;62.37
77079;BME280;66004;55.096;38.760;2023-08-12T01:17:00;100366.31;;;23.64;61.58
77079;BME280;66004;55.096;38.760;2023-08-12T01:19:34;100363.88;;;23.63;61.96
77079;BME280;66004;55.096;38.760;2023-08-12T01:22:01;100381.06;;;23.66;61.53
77079;BME280;66004;55.096;38.760;2023-08-12T01:24:34;100383.94;;;23.66;62.06
77079;BME280;66004;55.096;38.760;2023-08-12T01:27:00;100367.94;;;23.65;62.17
77079;BME280;66004;55.096;38.760;2023-08-12T01:29:26;100372.06;;;23.64;62.29
77079;BME280;66004;55.096;38.760;2023-08-12T01:31:56;100374.53;;;23.66;62.44
77079;BME280;66004;55.096;38.760;2023-08-12T01:34:36;100381.06;;;23.66;62.61
77079;BME280;66004;55.096;38.760;2023-08-12T01:37:05;100377.03;;;23.60;62.28
77079;BME280;66004;55.096;38.760;2023-08-12T01:39:35;100355.31;;;23.52;62.58
77079;BME280;66004;55.096;38.760;2023-08-12T01:42:02;100354.09;;;23.53;63.18
77079;BME280;66004;55.096;38.760;2023-08-12T01:44:28;100337.75;;;23.43;63.25
77079;BME280;66004;55.096;38.760;2023-08-12T01:46:53;100349.63;;;23.45;63.24
77079;BME280;66004;55.096;38.760;2023-08-12T01:49:19;100343.50;;;23.43;63.48
77079;BME280;66004;55.096;38.760;2023-08-12T01:51:44;100325.50;;;23.39;63.99
77079;BME280;66004;55.096;38.760;2023-08-12T01:54:10;100316.47;;;23.37;63.21
77079;BME280;66004;55.096;38.760;2023-08-12T01:56:35;100309.09;;;23.36;63.94
77079;BME280;66004;55.096;38.760;2023-08-12T01:59:01;100301.75;;;23.31;63.96
77079;BME280;66004;55.096;38.760;2023-08-12T02:01:26;100283.00;;;23.19;63.39
77079;BME280;66004;55.096;38.760;2023-08-12T02:03:52;100293.59;;;23.22;63.49
77079;BME280;66004;55.096;38.760;2023-08-12T02:06:17;100287.09;;;23.18;63.62
77079;BME280;66004;55.096;38.760;2023-08-12T02:08:43;100288.78;;;23.12;63.49
77079;BME280;66004;55.096;38.760;2023-08-12T02:11:08;100310.09;;;23.11;62.92
77079;BME280;66004;55.096;38.760;2023-08-12T02:13:34;100300.25;;;23.12;63.17
77079;BME280;66004;55.096;38.760;2023-08-12T02:15:59;100301.94;;;23.06;63.25
77079;BME280;66004;55.096;38.760;2023-08-12T02:18:25;100305.22;;;23.01;63.48
77079;BME280;66004;55.096;38.760;2023-08-12T02:20:50;100297.91;;;22.92;63.31
77079;BME280;66004;55.096;38.760;2023-08-12T02:23:15;100305.22;;;22.97;63.35
77079;BME280;66004;55.096;38.760;2023-08-12T02:25:41;100306.91;;;22.94;63.40
77079;BME280;66004;55.096;38.760;2023-08-12T02:28:06;100292.94;;;22.97;63.41
77079;BME280;66004;55.096;38.760;2023-08-12T02:30:32;100286.44;;;22.92;62.89
77079;BME280;66004;55.096;38.760;2023-08-12T02:32:58;100283.56;;;22.92;62.84
77079;BME280;66004;55.096;38.760;2023-08-12T02:35:24;100276.59;;;22.86;63.37
77079;BME280;66004;55.096;38.760;2023-08-12T02:37:49;100283.97;;;22.87;63.04
77079;BME280;66004;55.096;38.760;2023-08-12T02:40:15;100294.66;;;22.83;62.68
77079;BME280;66004;55.096;38.760;2023-08-12T02:42:40;100305.28;;;22.86;62.93
77079;BME280;66004;55.096;38.760;2023-08-12T02:45:06;100302.81;;;22.88;62.57
77079;BME280;66004;55.096;38.760;2023-08-12T02:47:31;100313.47;;;22.91;62.77
77079;BME280;66004;55.096;38.760;2023-08-12T02:49:57;100304.44;;;22.97;62.54
77079;BME280;66004;55.096;38.760;2023-08-12T02:52:22;100300.69;;;23.00;62.27
77079;BME280;66004;55.096;38.760;2023-08-12T02:54:48;100303.56;;;23.07;61.87
77079;BME280;66004;55.096;38.760;2023-08-12T02:57:13;100312.56;;;23.09;61.67
77079;BME280;66004;55.096;38.760;2023-08-12T02:59:39;100290.47;;;23.06;62.04
77079;BME280;66004;55.096;38.760;2023-08-12T03:02:04;100301.47;;;23.15;61.53
77079;BME280;66004;55.096;38.760;2023-08-12T03:04:30;100301.03;;;23.16;61.88
77079;BME280;66004;55.096;38.760;2023-08-12T03:06:55;100307.97;;;23.22;61.11
77079;BME280;66004;55.096;38.760;2023-08-12T03:09:21;100313.28;;;23.24;61.25
77079;BME280;66004;55.096;38.760;2023-08-12T03:11:46;100298.09;;;23.27;61.51
77079;BME280;66004;55.096;38.760;2023-08-12T03:14:12;100296.03;;;23.27;61.35
77079;BME280;66004;55.096;38.760;2023-08-12T03:16:37;100293.56;;;23.29;60.73
77079;BME280;66004;55.096;38.760;2023-08-12T03:19:03;100292.72;;;23.32;60.80
77079;BME280;66004;55.096;38.760;2023-08-12T03:21:28;100296.78;;;23.39;61.33
77079;BME280;66004;55.096;38.760;2023-08-12T03:23:54;100305.38;;;23.39;60.77
77079;BME280;66004;55.096;38.760;2023-08-12T03:26:19;100311.53;;;23.41;60.87
77079;BME280;66004;55.096;38.760;2023-08-12T03:28:45;100306.16;;;23.43;60.72
77079;BME280;66004;55.096;38.760;2023-08-12T03:31:10;100305.78;;;23.41;60.49
77079;BME280;66004;55.096;38.760;2023-08-12T03:33:36;100289.41;;;23.38;60.86
77079;BME280;66004;55.096;38.760;2023-08-12T03:36:01;100306.16;;;23.43;60.51
77079;BME280;66004;55.096;38.760;2023-08-12T03:38:27;100304.09;;;23.47;60.40
77079;BME280;66004;55.096;38.760;2023-08-12T03:40:52;100288.56;;;23.41;60.59
77079;BME280;66004;55.096;38.760;2023-08-12T03:43:18;100280.38;;;23.36;60.02
77079;BME280;66004;55.096;38.760;2023-08-12T03:45:44;100285.25;;;23.42;59.92
77079;BME280;66004;55.096;38.760;2023-08-12T03:48:10;100290.97;;;23.46;59.97
77079;BME280;66004;55.096;38.760;2023-08-12T03:50:36;100289.34;;;23.45;60.07
77079;BME280;66004;55.096;38.760;2023-08-12T03:53:02;100291.81;;;23.43;60.15
77079;BME280;66004;55.096;38.760;2023-08-12T03:55:32;100291.03;;;23.39;60.79
77079;BME280;66004;55.096;38.760;2023-08-12T03:57:58;100283.69;;;23.38;60.11
77079;BME280;66004;55.096;38.760;2023-08-12T04:00:23;100292.28;;;23.38;60.30
77079;BME280;66004;55.096;38.760;2023-08-12T04:02:49;100292.28;;;23.38;60.29
77079;BME280;66004;55.096;38.760;2023-08-12T04:05:14;100296.00;;;23.35;60.74
77079;BME280;66004;55.096;38.760;2023-08-12T04:07:40;100291.47;;;23.33;60.75
77079;BME280;66004;55.096;38.760;2023-08-12T04:10:06;100285.34;;;23.31;60.47
77079;BME280;66004;55.096;38.760;2023-08-12T04:12:31;100267.84;;;23.15;60.48
77079;BME280;66004;55.096;38.760;2023-08-12T04:14:57;100277.63;;;23.25;60.27
77079;BME280;66004;55.096;38.760;2023-08-12T04:17:22;100280.50;;;23.21;60.22
77079;BME280;66004;55.096;38.760;2023-08-12T04:19:48;100275.66;;;23.11;60.77
77079;BME280;66004;55.096;38.760;2023-08-12T04:22:14;100291.22;;;23.17;60.29
77079;BME280;66004;55.096;38.760;2023-08-12T04:24:40;100292.03;;;23.14;60.42
77079;BME280;66004;55.096;38.760;2023-08-12T04:27:05;100295.31;;;23.12;60.15
77079;BME280;66004;55.096;38.760;2023-08-12T04:29:31;100297.34;;;23.19;60.54
77079;BME280;66004;55.096;38.760;2023-08-12T10:38:06;100229.25;;;24.99;55.20
77079;BME280;66004;55.096;38.760;2023-08-12T10:40:31;100230.00;;;25.03;55.35
77079;BME280;66004;55.096;38.760;2023-08-12T10:42:57;100230.38;;;25.05;55.57
77079;BME280;66004;55.096;38.760;2023-08-12T10:45:22;100220.03;;;25.11;55.00
77079;BME280;66004;55.096;38.760;2023-08-12T10:48:11;100212.50;;;25.17;54.85
77079;BME280;66004;55.096;38.760;2023-08-12T10:50:43;100201.00;;;25.17;55.33
77079;BME280;66004;55.096;38.760;2023-08-12T10:53:24;100193.66;;;25.13;55.39
77079;BME280;66004;55.096;38.760;2023-08-12T10:55:54;100197.75;;;25.15;55.14
77079;BME280;66004;55.096;38.760;2023-08-12T10:58:28;100188.47;;;25.04;55.32
77079;BME280;66004;55.096;38.760;2023-08-12T11:00:55;100195.47;;;25.03;55.69
77079;BME280;66004;55.096;38.760;2023-08-12T11:03:21;100225.72;;;25.15;55.39
77079;BME280;66004;55.096;38.760;2023-08-12T11:05:46;100219.88;;;25.18;55.95
77079;BME280;66004;55.096;38.760;2023-08-12T11:08:13;100228.06;;;25.23;56.43
77079;BME280;66004;55.096;38.760;2023-08-12T11:10:39;100234.56;;;25.28;56.58
77079;BME280;66004;55.096;38.760;2023-08-12T11:13:05;100223.06;;;25.28;57.16
77079;BME280;66004;55.096;38.760;2023-08-12T11:17:57;100234.13;;;25.29;57.66
77079;BME280;66004;55.096;38.760;2023-08-12T11:20:23;100246.56;;;25.22;57.49
77079;BME280;66004;55.096;38.760;2023-08-12T11:22:50;100246.25;;;25.17;57.82
77079;BME280;66004;55.096;38.760;2023-08-12T11:25:16;100243.06;;;25.11;57.93
77079;BME280;66004;55.096;38.760;2023-08-12T11:27:43;100222.75;;;24.95;58.88
77079;BME280;66004;55.096;38.760;2023-08-12T11:30:11;100242.63;;;24.85;59.18
77079;BME280;66004;55.096;38.760;2023-08-12T11:32:38;100237.94;;;24.68;60.02
77079;BME280;66004;55.096;38.760;2023-08-12T11:35:06;100248.41;;;24.55;60.76
77079;BME280;66004;55.096;38.760;2023-08-12T11:37:32;100263.72;;;24.41;61.01
77079;BME280;66004;55.096;38.760;2023-08-12T11:39:58;100286.88;;;24.30;62.02
77079;BME280;66004;55.096;38.760;2023-08-12T11:42:24;100254.28;;;24.09;62.65
77079;BME280;66004;55.096;38.760;2023-08-12T11:44:49;100239.22;;;23.98;63.20
77079;BME280;66004;55.096;38.760;2023-08-12T11:47:15;100233.63;;;23.84;64.11
77079;BME280;66004;55.096;38.760;2023-08-12T11:49:40;100218.13;;;23.70;65.04
77079;BME280;66004;55.096;38.760;2023-08-12T11:52:09;100208.81;;;23.59;65.07
77079;BME280;66004;55.096;38.760;2023-08-12T11:54:36;100209.22;;;23.58;64.59
77079;BME280;66004;55.096;38.760;2023-08-12T11:57:01;100210.59;;;23.46;64.73
77079;BME280;66004;55.096;38.760;2023-08-12T11:59:27;100228.19;;;23.48;65.44
77079;BME280;66004;55.096;38.760;2023-08-12T12:01:54;100230.69;;;23.46;65.67
77079;BME280;66004;55.096;38.760;2023-08-12T12:04:20;100240.91;;;23.47;65.88
77079;BME280;66004;55.096;38.760;2023-08-12T12:06:46;100242.56;;;23.48;66.04
77079;BME280;66004;55.096;38.760;2023-08-12T12:09:15;100233.56;;;23.46;66.96
77079;BME280;66004;55.096;38.760;2023-08-12T12:11:44;100233.94;;;23.48;67.15
77079;BME280;66004;55.096;38.760;2023-08-12T12:14:10;100225.34;;;23.48;67.01
77079;BME280;66004;55.096;38.760;2023-08-12T12:16:46;100215.78;;;23.58;67.53
77079;BME280;66004;55.096;38.760;2023-08-12T12:19:22;100207.88;;;23.69;67.03
77079;BME280;66004;55.096;38.760;2023-08-12T12:21:50;100217.22;;;23.81;66.27
77079;BME280;66004;55.096;38.760;2023-08-12T12:24:16;100220.41;;;23.90;65.87
77079;BME280;66004;55.096;38.760;2023-08-12T12:26:43;100192.22;;;23.78;65.56
77079;BME280;66004;55.096;38.760;2023-08-12T12:29:09;100184.78;;;23.84;65.60
77079;BME280;66004;55.096;38.760;2023-08-12T12:31:40;100196.97;;;23.95;65.41
77079;BME280;66004;55.096;38.760;2023-08-12T12:34:07;100197.72;;;23.99;65.54
77079;BME280;66004;55.096;38.760;2023-08-12T12:36:35;100187.06;;;24.00;64.98
77079;BME280;66004;55.096;38.760;2023-08-12T12:39:04;100187.88;;;24.00;66.00
77079;BME280;66004;55.096;38.760;2023-08-12T12:41:30;100191.97;;;23.99;66.06
77079;BME280;66004;55.096;38.760;2023-08-12T12:43:56;100190.34;;;23.98;66.12
77079;BME280;66004;55.096;38.760;2023-08-12T12:46:22;100178.00;;;24.01;66.26
77079;BME280;66004;55.096;38.760;2023-08-12T12:48:48;100181.25;;;24.03;65.89
77079;BME280;66004;55.096;38.760;2023-08-12T12:51:13;100183.75;;;24.01;66.38
77079;BME280;66004;55.096;38.760;2023-08-12T12:53:40;100182.81;;;24.12;65.95
77079;BME280;66004;55.096;38.760;2023-08-12T12:56:06;100171.31;;;24.12;65.50
77079;BME280;66004;55.096;38.760;2023-08-12T12:58:33;100175.41;;;24.10;65.82
77079;BME280;66004;55.096;38.760;2023-08-12T13:00:59;100180.31;;;24.14;66.48
77079;BME280;66004;55.096;38.760;2023-08-12T13:03:25;100185.59;;;24.19;66.46
77079;BME280;66004;55.096;38.760;2023-08-12T13:05:51;100171.56;;;24.24;65.61
77079;BME280;66004;55.096;38.760;2023-08-12T13:08:17;100185.81;;;24.32;65.37
77079;BME280;66004;55.096;38.760;2023-08-12T13:10:42;100175.19;;;24.28;65.29
77079;BME280;66004;55.096;38.760;2023-08-12T13:13:08;100162.97;;;24.21;65.33
77079;BME280;66004;55.096;38.760;2023-08-12T13:15:34;100149.94;;;24.13;64.97
77079;BME280;66004;55.096;38.760;2023-08-12T13:18:00;100140.16;;;24.06;65.06
77079;BME280;66004;55.096;38.760;2023-08-12T13:20:25;100127.09;;;24.02;65.18
77079;BME280;66004;55.096;38.760;2023-08-12T13:22:50;100116.97;;;23.90;64.89
77079;BME280;66004;55.096;38.760;2023-08-12T13:25:16;100145.16;;;24.02;64.86
77079;BME280;66004;55.096;38.760;2023-08-12T13:27:42;100140.97;;;24.07;64.67
77079;BME280;66004;55.096;38.760;2023-08-12T13:30:09;100132.81;;;24.05;64.77
77079;BME280;66004;55.096;38.760;2023-08-12T13:32:36;100132.81;;;24.05;64.83
77079;BME280;66004;55.096;38.760;2023-08-12T13:35:02;100134.41;;;24.06;64.88
77079;BME280;66004;55.096;38.760;2023-08-12T13:37:28;100143.47;;;24.05;64.53
77079;BME280;66004;55.096;38.760;2023-08-12T13:39:53;100141.13;;;23.96;63.98
77079;BME280;66004;55.096;38.760;2023-08-12T13:42:19;100124.81;;;23.86;63.77
77079;BME280;66004;55.096;38.760;2023-08-12T13:44:44;100133.81;;;23.88;63.91
77079;BME280;66004;55.096;38.760;2023-08-12T13:47:10;100123.22;;;23.85;63.43
77079;BME280;66004;55.096;38.760;2023-08-12T13:49:35;100110.22;;;23.69;63.70
77079;BME280;66004;55.096;38.760;2023-08-12T13:52:00;100115.53;;;23.71;64.22
77079;BME280;66004;55.096;38.760;2023-08-12T13:54:26;100114.41;;;23.61;63.88
77079;BME280;66004;55.096;38.760;2023-08-12T13:56:51;100114.84;;;23.60;63.50
77079;BME280;66004;55.096;38.760;2023-08-12T13:59:17;100114.41;;;23.61;63.03
77079;BME280;66004;55.096;38.760;2023-08-12T14:01:42;100120.97;;;23.62;63.31
77079;BME280;66004;55.096;38.760;2023-08-12T14:04:08;100117.69;;;23.63;62.55
77079;BME280;66004;55.096;38.760;2023-08-12T14:06:34;100128.28;;;23.70;62.88
77079;BME280;66004;55.096;38.760;2023-08-12T14:08:59;100133.16;;;23.73;62.39
77079;BME280;66004;55.096;38.760;2023-08-12T14:11:24;100147.16;;;23.67;62.49
77079;BME280;66004;55.096;38.760;2023-08-12T14:13:50;100141.53;;;23.60;62.63
77079;BME280;66004;55.096;38.760;2023-08-12T14:16:15;100131.34;;;23.52;62.87
77079;BME280;66004;55.096;38.760;2023-08-12T14:18:41;100138.34;;;23.51;62.86
77079;BME280;66004;55.096;38.760;2023-08-12T14:21:07;100153.13;;;23.49;63.77
77079;BME280;66004;55.096;38.760;2023-08-12T14:23:32;100154.66;;;23.58;63.92
77079;BME280;66004;55.096;38.760;2023-08-12T14:25:58;100149.72;;;23.58;63.47
77079;BME280;66004;55.096;38.760;2023-08-12T14:28:23;100120.31;;;23.47;64.29
77079;BME280;66004;55.096;38.760;2023-08-12T14:30:49;100149.34;;;23.56;63.95
77079;BME280;66004;55.096;38.760;2023-08-12T14:33:14;100135.47;;;23.51;64.84
77079;BME280;66004;55.096;38.760;2023-08-12T14:35:39;100142.44;;;23.50;64.63
77079;BME280;66004;55.096;38.760;2023-08-12T14:38:05;100133.41;;;23.51;65.20
77079;BME280;66004;55.096;38.760;2023-08-12T14:40:30;100121.94;;;23.51;65.20
77079;BME280;66004;55.096;38.760;2023-08-12T14:42:56;100124.38;;;23.53;65.84
77079;BME280;66004;55.096;38.760;2023-08-12T14:45:21;100138.25;;;23.58;66.02
77079;BME280;66004;55.096;38.760;2023-08-12T14:47:47;100143.16;;;23.61;65.77
77079;BME280;66004;55.096;38.760;2023-08-12T14:50:12;100128.41;;;23.59;65.57
77079;BME280;66004;55.096;38.760;2023-08-12T14:52:38;100139.97;;;23.52;66.10
77079;BME280;66004;55.096;38.760;2023-08-12T14:55:03;100122.28;;;23.57;66.43
77079;BME280;66004;55.096;38.760;2023-08-12T14:57:29;100112.81;;;23.60;66.98
77079;BME280;66004;55.096;38.760;2023-08-12T14:59:54;100116.91;;;23.59;67.12
77079;BME280;66004;55.096;38.760;2023-08-12T15:02:20;100099.75;;;23.52;67.08
77079;BME280;66004;55.096;38.760;2023-08-12T15:04:48;100100.63;;;23.49;67.43
77079;BME280;66004;55.096;38.760;2023-08-12T15:07:13;100115.28;;;23.58;67.62
77079;BME280;66004;55.096;38.760;2023-08-12T15:09:39;100099.69;;;23.59;67.13
77079;BME280;66004;55.096;38.760;2023-08-12T15:12:05;100069.31;;;23.58;67.07
77079;BME280;66004;55.096;38.760;2023-08-12T15:14:30;100089.59;;;23.82;67.22
77079;BME280;66004;55.096;38.760;2023-08-12T15:16:56;100074.72;;;23.90;67.16
77079;BME280;66004;55.096;38.760;2023-08-12T15:19:21;100074.66;;;23.94;66.59
77079;BME280;66004;55.096;38.760;2023-08-12T15:21:47;100065.53;;;23.99;66.62
77079;BME280;66004;55.096;38.760;2023-08-12T15:24:14;100067.94;;;24.04;66.72
77079;BME280;66004;55.096;38.760;2023-08-12T15:26:39;100071.19;;;24.06;66.96
77079;BME280;66004;55.096;38.760;2023-08-12T15:29:05;100074.44;;;24.08;66.14
77079;BME280;66004;55.096;38.760;2023-08-12T15:31:30;100070.34;;;24.09;66.22
77079;BME280;66004;55.096;38.760;2023-08-12T15:33:56;100059.69;;;24.06;66.57
77079;BME280;66004;55.096;38.760;2023-08-12T15:36:21;100060.97;;;24.05;66.92
77079;BME280;66004;55.096;38.760;2023-08-12T15:38:47;100052.44;;;23.98;66.70
77079;BME280;66004;55.096;38.760;2023-08-12T15:41:15;100056.09;;;23.99;66.85
77079;BME280;66004;55.096;38.760;2023-08-12T15:43:40;100042.78;;;23.85;67.04
77079;BME280;66004;55.096;38.760;2023-08-12T15:46:07;100055.03;;;23.89;67.04
77079;BME280;66004;55.096;38.760;2023-08-12T15:48:33;100043.16;;;23.87;67.26
77079;BME280;66004;55.096;38.760;2023-08-12T15:50:58;100052.63;;;23.84;67.89
77079;BME280;66004;55.096;38.760;2023-08-12T15:53:24;100057.59;;;23.80;67.34
77079;BME280;66004;55.096;38.760;2023-08-12T15:55:49;100049.44;;;23.75;68.09
77079;BME280;66004;55.096;38.760;2023-08-12T15:58:15;100047.81;;;23.74;67.92
77079;BME280;66004;55.096;38.760;2023-08-12T16:00:44;100041.78;;;23.64;68.19
77079;BME280;66004;55.096;38.760;2023-08-12T16:03:10;100046.63;;;23.67;67.83
77079;BME280;66004;55.096;38.760;2023-08-12T16:05:36;100047.09;;;23.66;68.04
77079;BME280;66004;55.096;38.760;2023-08-12T16:08:02;100047.13;;;23.62;68.07
77079;BME280;66004;55.096;38.760;2023-08-12T16:10:29;100058.63;;;23.62;67.92
77079;BME280;66004;55.096;38.760;2023-08-12T16:12:54;100057.03;;;23.58;67.90
77079;BME280;66004;55.096;38.760;2023-08-12T16:15:20;100055.41;;;23.57;67.89
77079;BME280;66004;55.096;38.760;2023-08-12T16:17:45;100048.44;;;23.54;67.93
77079;BME280;66004;55.096;38.760;2023-08-12T16:20:11;100025.19;;;23.45;67.17
77079;BME280;66004;55.096;38.760;2023-08-12T16:22:37;100038.22;;;23.53;67.29
77079;BME280;66004;55.096;38.760;2023-08-12T16:25:04;100017.06;;;23.40;67.22
77079;BME280;66004;55.096;38.760;2023-08-12T16:27:30;100028.44;;;23.47;67.00
77079;BME280;66004;55.096;38.760;2023-08-12T16:29:56;100031.75;;;23.45;67.17
77079;BME280;66004;55.096;38.760;2023-08-12T16:32:22;100021.13;;;23.42;66.91
77079;BME280;66004;55.096;38.760;2023-08-12T16:34:47;100034.28;;;23.40;67.12
77079;BME280;66004;55.096;38.760;2023-08-12T16:37:13;100019.63;;;23.30;67.67
77079;BME280;66004;55.096;38.760;2023-08-12T16:39:38;100009.84;;;23.24;67.20
77079;BME280;66004;55.096;38.760;2023-08-12T16:42:04;100030.28;;;23.30;67.28
77079;BME280;66004;55.096;38.760;2023-08-12T16:44:29;100024.63;;;23.26;67.78
77079;BME280;66004;55.096;38.760;2023-08-12T16:46:55;100018.06;;;23.22;67.89
77079;BME280;66004;55.096;38.760;2023-08-12T16:49:20;100038.66;;;23.17;68.03
77079;BME280;66004;55.096;38.760;2023-08-12T16:51:46;100035.78;;;23.17;68.35
77079;BME280;66004;55.096;38.760;2023-08-12T16:54:11;100021.97;;;23.05;68.60
77079;BME280;66004;55.096;38.760;2023-08-12T16:56:37;100019.09;;;23.05;68.59
77079;BME280;66004;55.096;38.760;2023-08-12T16:59:02;100033.00;;;23.10;68.30
77079;BME280;66004;55.096;38.760;2023-08-12T17:01:28;100037.09;;;23.09;68.62
77079;BME280;66004;55.096;38.760;2023-08-12T17:03:54;100032.59;;;23.08;68.93
77079;BME280;66004;55.096;38.760;2023-08-12T17:06:19;100042.06;;;23.05;68.88
77079;BME280;66004;55.096;38.760;2023-08-12T17:08:45;100047.78;;;23.05;68.65
77079;BME280;66004;55.096;38.760;2023-08-12T17:11:10;100041.63;;;23.03;69.12
77079;BME280;66004;55.096;38.760;2023-08-12T17:13:36;100045.78;;;22.98;69.37
77079;BME280;66004;55.096;38.760;2023-08-12T17:16:02;100040.84;;;23.02;68.99
77079;BME280;66004;55.096;38.760;2023-08-12T17:18:28;100039.59;;;23.00;69.55
77079;BME280;66004;55.096;38.760;2023-08-12T17:20:53;100052.72;;;23.01;69.57
77079;BME280;66004;55.096;38.760;2023-08-12T17:23:19;100033.91;;;22.96;69.63
77079;BME280;66004;55.096;38.760;2023-08-12T17:25:44;100038.00;;;22.99;69.82
77079;BME280;66004;55.096;38.760;2023-08-12T17:28:11;100046.22;;;22.97;69.45
77079;BME280;66004;55.096;38.760;2023-08-12T17:30:37;100039.72;;;22.92;70.27
77079;BME280;66004;55.096;38.760;2023-08-12T17:33:02;100034.84;;;22.86;69.98
77079;BME280;66004;55.096;38.760;2023-08-12T17:35:28;100045.44;;;22.92;69.64
77079;BME280;66004;55.096;38.760;2023-08-12T17:37:54;100058.53;;;22.93;70.03
77079;BME280;66004;55.096;38.760;2023-08-12T17:40:19;100039.38;;;22.83;69.47
77079;BME280;66004;55.096;38.760;2023-08-12T17:42:50;100062.66;;;22.92;69.52
77079;BME280;66004;55.096;38.760;2023-08-12T17:45:17;100052.78;;;22.93;69.60
77079;BME280;66004;55.096;38.760;2023-08-12T17:48:00;100030.78;;;22.83;69.89
77079;BME280;66004;55.096;38.760;2023-08-12T17:50:28;100045.44;;;22.92;69.80
77079;BME280;66004;55.096;38.760;2023-08-12T17:52:54;100051.19;;;22.92;69.38
77079;BME280;66004;55.096;38.760;2023-08-12T17:55:20;100055.28;;;22.91;69.60
77079;BME280;66004;55.096;38.760;2023-08-12T17:57:45;100061.84;;;22.88;69.44
77079;BME280;66004;55.096;38.760;2023-08-12T18:00:12;100063.50;;;22.89;69.30
77079;BME280;66004;55.096;38.760;2023-08-12T18:02:39;100052.09;;;22.82;69.83
77079;BME280;66004;55.096;38.760;2023-08-12T18:05:04;100064.72;;;22.88;68.92
77079;BME280;66004;55.096;38.760;2023-08-12T18:07:30;100060.25;;;22.87;68.79
77079;BME280;66004;55.096;38.760;2023-08-12T18:09:56;100047.91;;;22.90;68.81
77079;BME280;66004;55.096;38.760;2023-08-12T18:12:21;100052.84;;;22.86;69.10
77079;BME280;66004;55.096;38.760;2023-08-12T18:14:47;100047.91;;;22.90;69.08
77079;BME280;66004;55.096;38.760;2023-08-12T18:17:12;100046.69;;;22.88;69.35
77079;BME280;66004;55.096;38.760;2023-08-12T18:19:38;100040.53;;;22.89;69.20
77079;BME280;66004;55.096;38.760;2023-08-12T18:22:03;100056.91;;;22.92;68.50
77079;BME280;66004;55.096;38.760;2023-08-12T18:24:29;100038.06;;;22.91;69.22
77079;BME280;66004;55.096;38.760;2023-08-12T18:26:55;100045.44;;;22.92;69.22
77079;BME280;66004;55.096;38.760;2023-08-12T18:29:22;100033.97;;;22.92;68.74
77079;BME280;66004;55.096;38.760;2023-08-12T18:31:48;100030.28;;;22.88;68.74
77079;BME280;66004;55.096;38.760;2023-08-12T18:34:13;100034.00;;;22.89;68.81
77079;BME280;66004;55.096;38.760;2023-08-12T18:36:39;100035.63;;;22.90;69.16
77079;BME280;66004;55.096;38.760;2023-08-12T18:39:04;100025.81;;;22.87;68.97
77079;BME280;66004;55.096;38.760;2023-08-12T18:41:30;100034.78;;;22.93;68.79
77079;BME280;66004;55.096;38.760;2023-08-12T18:43:56;100020.84;;;22.91;68.37